createdAt,value
2019-04-29T00:01:07.928Z,89.53
2019-04-29T00:03:44.149Z,89.58
2019-04-29T00:06:20.037Z,89.53
2019-04-29T00:08:56.432Z,89.73
2019-04-29T00:11:32.317Z,89.92
2019-04-29T00:14:08.932Z,89.50
2019-04-29T00:16:46.392Z,89.24
2019-04-29T00:19:30.241Z,89.29
2019-04-29T00:22:06.474Z,89.25
2019-04-29T00:24:42.351Z,89.36
2019-04-29T00:27:18.348Z,89.53
2019-04-29T00:29:54.271Z,89.57
2019-04-29T00:32:30.225Z,89.84
2019-04-29T00:35:07.811Z,89.42
2019-04-29T00:37:45.616Z,89.73
2019-04-29T00:40:38.507Z,89.79
2019-04-29T00:43:21.965Z,89.62
2019-04-29T00:45:58.723Z,89.66
2019-04-29T00:48:34.638Z,89.82
2019-04-29T00:51:10.599Z,90.02
2019-04-29T00:53:47.456Z,90.19
2019-04-29T00:56:23.352Z,90.37
2019-04-29T00:58:59.523Z,89.92
2019-04-29T01:01:35.456Z,90.09
2019-04-29T01:04:11.399Z,90.49
2019-04-29T01:06:47.389Z,90.25
2019-04-29T01:09:25.081Z,90.13
2019-04-29T01:12:00.970Z,90.15
2019-04-29T01:14:36.927Z,90.01
2019-04-29T01:17:12.883Z,90.21
2019-04-29T01:19:49.377Z,90.32
2019-04-29T01:22:25.617Z,90.12
2019-04-29T01:25:01.537Z,90.02
2019-04-29T01:27:43.319Z,90.32
2019-04-29T01:30:55.655Z,90.67
2019-04-29T01:33:31.020Z,90.50
2019-04-29T01:36:17.374Z,90.24
2019-04-29T01:38:54.857Z,90.03
2019-04-29T01:41:48.513Z,89.91
2019-04-29T01:44:26.010Z,90.07
2019-04-29T01:47:02.202Z,90.29
2019-04-29T01:49:38.152Z,90.75
2019-04-29T01:52:15.197Z,90.42
2019-04-29T01:54:51.732Z,90.74
2019-04-29T01:57:27.687Z,90.80
2019-04-29T02:00:03.841Z,90.44
2019-04-29T02:02:39.915Z,90.19
2019-04-29T02:05:15.820Z,90.24
2019-04-29T02:07:51.729Z,90.39
2019-04-29T02:10:29.216Z,90.08
2019-04-29T02:13:05.253Z,90.20
2019-04-29T02:15:41.169Z,90.27
2019-04-29T02:18:17.280Z,90.20
2019-04-29T02:20:53.174Z,90.27
2019-04-29T02:23:47.067Z,90.33
2019-04-29T02:26:22.994Z,90.23
2019-04-29T02:28:58.933Z,90.05
2019-04-29T02:31:42.128Z,90.08
2019-04-29T02:34:18.043Z,90.01
2019-04-29T02:36:54.214Z,90.21
2019-04-29T02:39:34.861Z,90.52
2019-04-29T02:42:28.587Z,90.39
2019-04-29T02:45:07.858Z,90.28
2019-04-29T02:47:43.805Z,90.52
2019-04-29T02:50:20.201Z,90.19
2019-04-29T02:52:56.153Z,90.26
2019-04-29T02:55:33.638Z,90.05
2019-04-29T02:58:20.763Z,90.12
2019-04-29T03:01:16.801Z,90.47
2019-04-29T03:03:54.293Z,90.65
2019-04-29T03:06:30.223Z,90.51
2019-04-29T03:09:07.835Z,90.34
2019-04-29T03:11:43.846Z,90.54
2019-04-29T03:14:19.840Z,90.29
2019-04-29T03:16:55.757Z,90.39
2019-04-29T03:19:33.838Z,90.39
2019-04-29T03:22:10.847Z,90.45
2019-04-29T03:24:46.730Z,90.56
2019-04-29T03:27:22.654Z,90.50
2019-04-29T03:29:58.573Z,90.42
2019-04-29T03:32:34.481Z,90.18
2019-04-29T03:35:10.787Z,90.38
2019-04-29T03:37:46.927Z,90.79
2019-04-29T03:40:22.942Z,90.33
2019-04-29T03:42:58.822Z,90.52
2019-04-29T03:45:34.725Z,90.54
2019-04-29T03:48:10.634Z,90.60
2019-04-29T03:50:46.670Z,90.39
2019-04-29T03:53:28.049Z,90.06
2019-04-29T03:56:01.206Z,90.30
2019-04-29T03:58:37.071Z,90.41
2019-04-29T04:01:26.969Z,90.33
2019-04-29T04:04:07.411Z,90.67
2019-04-29T04:06:44.924Z,90.75
2019-04-29T04:09:25.541Z,90.99
2019-04-29T04:12:01.416Z,90.99
2019-04-29T04:14:37.309Z,90.61
2019-04-29T04:17:23.665Z,90.85
2019-04-29T04:20:00.749Z,90.96
2019-04-29T04:22:46.843Z,90.77
2019-04-29T04:25:22.923Z,90.81
2019-04-29T04:27:58.839Z,90.52
2019-04-29T04:30:34.744Z,90.07
2019-04-29T04:33:10.670Z,89.93
2019-04-29T04:35:46.603Z,90.06
2019-04-29T04:38:22.952Z,90.17
2019-04-29T04:41:03.152Z,90.10
2019-04-29T04:43:40.111Z,90.55
2019-04-29T04:46:16.091Z,90.58
2019-04-29T04:48:52.173Z,90.54
2019-04-29T04:51:28.312Z,90.31
2019-04-29T04:54:04.201Z,90.54
2019-04-29T04:56:40.113Z,90.37
2019-04-29T04:59:16.079Z,90.33
2019-04-29T05:01:52.027Z,90.51
2019-04-29T05:04:27.991Z,90.49
2019-04-29T05:07:04.151Z,90.63
2019-04-29T05:09:41.748Z,90.51
2019-04-29T05:12:17.696Z,90.44
2019-04-29T05:14:53.658Z,90.64
2019-04-29T05:17:29.615Z,90.63
2019-04-29T05:20:07.218Z,90.39
2019-04-29T05:22:45.011Z,90.57
2019-04-29T05:25:21.061Z,90.28
2019-04-29T05:27:57.016Z,90.15
2019-04-29T05:30:32.971Z,90.24
2019-04-29T05:33:09.554Z,90.18
2019-04-29T05:35:49.365Z,90.27
2019-04-29T05:38:26.953Z,90.33
2019-04-29T05:41:04.138Z,90.01
2019-04-29T05:43:50.172Z,90.27
2019-04-29T05:46:37.932Z,90.23
2019-04-29T05:49:15.498Z,90.52
2019-04-29T05:51:57.626Z,90.39
2019-04-29T05:54:35.196Z,89.98
2019-04-29T05:57:11.139Z,89.95
2019-04-29T05:59:47.844Z,90.02
2019-04-29T06:02:33.115Z,89.85
2019-04-29T06:05:02.501Z,90.41
2019-04-29T06:07:38.466Z,89.71
2019-04-29T06:10:18.066Z,89.48
2019-04-29T06:12:52.522Z,89.29
2019-04-29T06:15:28.467Z,89.45
2019-04-29T06:18:04.432Z,88.79
2019-04-29T06:20:40.493Z,88.92
2019-04-29T06:23:19.036Z,89.15
2019-04-29T06:25:54.138Z,88.68
2019-04-29T06:28:30.012Z,88.94
2019-04-29T06:31:06.409Z,88.45
2019-04-29T06:33:42.424Z,88.87
2019-04-29T06:36:18.380Z,88.36
2019-04-29T06:38:54.633Z,88.40
2019-04-29T06:41:30.608Z,88.48
2019-04-29T06:44:15.831Z,88.16
2019-04-29T06:46:44.145Z,87.96
2019-04-29T06:49:20.107Z,88.58
2019-04-29T06:51:56.168Z,89.00
2019-04-29T06:54:33.346Z,89.00
2019-04-29T06:57:09.306Z,88.63
2019-04-29T06:59:47.457Z,88.95
2019-04-29T07:02:22.967Z,89.05
2019-04-29T07:04:58.909Z,88.76
2019-04-29T07:07:34.876Z,88.58
2019-04-29T07:10:10.935Z,88.73
2019-04-29T07:12:47.668Z,88.63
2019-04-29T07:15:24.586Z,88.98
2019-04-29T07:18:00.543Z,88.45
2019-04-29T07:20:37.062Z,88.76
2019-04-29T07:23:14.697Z,87.93
2019-04-29T07:25:50.653Z,88.06
2019-04-29T07:28:26.612Z,87.85
2019-04-29T07:31:03.178Z,88.01
2019-04-29T07:33:39.343Z,88.14
2019-04-29T07:36:18.595Z,88.25
2019-04-29T07:38:56.614Z,88.10
2019-04-29T07:41:30.808Z,87.91
2019-04-29T07:44:06.771Z,87.90
2019-04-29T07:46:56.890Z,88.24
2019-04-29T07:49:24.236Z,88.27
2019-04-29T07:51:59.957Z,88.59
2019-04-29T07:54:36.016Z,88.36
2019-04-29T07:57:12.356Z,88.11
2019-04-29T07:59:49.557Z,88.08
2019-04-29T08:02:25.515Z,88.13
2019-04-29T08:05:01.895Z,88.12
2019-04-29T08:07:39.460Z,88.51
2019-04-29T08:10:23.293Z,88.09
2019-04-29T08:12:55.593Z,88.28
2019-04-29T08:15:32.145Z,88.19
2019-04-29T08:18:11.481Z,88.56
2019-04-29T08:20:46.014Z,88.49
2019-04-29T08:23:21.974Z,88.37
2019-04-29T08:26:02.638Z,88.11
2019-04-29T08:28:35.833Z,87.92
2019-04-29T08:31:11.787Z,87.87
2019-04-29T08:33:48.510Z,87.97
2019-04-29T08:36:25.668Z,87.93
2019-04-29T08:39:08.322Z,87.75
2019-04-29T08:41:40.840Z,87.66
2019-04-29T08:44:18.443Z,86.81
2019-04-29T08:47:05.343Z,87.24
2019-04-29T08:49:41.307Z,87.27
2019-04-29T08:52:17.878Z,87.50
2019-04-29T08:54:55.417Z,87.77
2019-04-29T08:57:31.921Z,87.60
2019-04-29T09:00:09.993Z,87.78
2019-04-29T09:02:47.359Z,87.66
2019-04-29T09:05:23.599Z,87.86
2019-04-29T09:07:59.563Z,87.21
2019-04-29T09:10:36.843Z,87.67
2019-04-29T09:13:13.311Z,87.97
2019-04-29T09:15:49.486Z,87.76
2019-04-29T09:18:25.521Z,88.32
2019-04-29T09:21:01.488Z,87.87
2019-04-29T09:23:38.576Z,87.86
2019-04-29T09:26:16.051Z,88.13
2019-04-29T09:28:52.121Z,87.89
2019-04-29T09:31:28.580Z,87.87
2019-04-29T09:34:06.866Z,87.75
2019-04-29T09:36:44.000Z,88.09
2019-04-29T09:39:42.908Z,87.42
2019-04-29T09:42:17.001Z,87.15
2019-04-29T09:45:09.529Z,86.68
2019-04-29T09:47:45.482Z,86.18
2019-04-29T09:50:34.241Z,86.46
2019-04-29T09:53:26.888Z,87.00
2019-04-29T09:56:07.161Z,87.06
2019-04-29T09:58:45.321Z,86.74
2019-04-29T10:01:35.662Z,86.69
2019-04-29T10:04:21.674Z,86.99
2019-04-29T10:06:59.341Z,87.06
2019-04-29T10:09:35.510Z,86.98
2019-04-29T10:12:11.458Z,86.76
2019-04-29T10:14:47.422Z,87.32
2019-04-29T10:17:28.191Z,86.91
2019-04-29T10:20:12.236Z,86.47
2019-04-29T10:22:50.259Z,86.37
2019-04-29T10:25:25.886Z,86.19
2019-04-29T10:28:01.846Z,86.50
2019-04-29T10:30:39.095Z,86.18
2019-04-29T10:33:17.567Z,86.45
2019-04-29T10:35:58.827Z,87.19
2019-04-29T10:38:40.446Z,86.40
2019-04-29T10:41:19.740Z,86.38
2019-04-29T10:44:13.414Z,86.17
2019-04-29T10:46:53.672Z,86.14
2019-04-29T10:49:34.752Z,86.65
2019-04-29T10:52:10.618Z,86.21
2019-04-29T10:54:46.532Z,86.31
2019-04-29T10:57:24.264Z,86.08
2019-04-29T11:00:17.050Z,86.16
2019-04-29T11:02:52.281Z,86.77
2019-04-29T11:05:29.954Z,87.04
2019-04-29T11:08:08.102Z,86.87
2019-04-29T11:10:44.529Z,86.37
2019-04-29T11:13:20.484Z,86.18
2019-04-29T11:15:56.438Z,86.06
2019-04-29T11:21:25.071Z,85.63
2019-04-29T11:24:03.455Z,85.76
2019-04-29T11:26:50.914Z,86.73
2019-04-29T11:29:28.822Z,86.96
2019-04-29T11:32:06.378Z,87.34
2019-04-29T11:34:48.623Z,86.94
2019-04-29T11:37:24.940Z,87.14
2019-04-29T11:40:01.008Z,86.54
2019-04-29T11:42:41.486Z,87.41
2019-04-29T11:45:16.079Z,87.10
2019-04-29T11:47:52.052Z,87.23
2019-04-29T11:50:38.651Z,87.89
2019-04-29T11:53:15.737Z,87.61
2019-04-29T11:55:52.579Z,87.42
2019-04-29T11:58:48.226Z,87.67
2019-04-29T12:01:37.777Z,87.42
2019-04-29T12:04:05.677Z,86.92
2019-04-29T12:06:41.630Z,86.88
2019-04-29T12:09:17.883Z,87.02
2019-04-29T12:11:53.845Z,87.51
2019-04-29T12:14:43.735Z,87.13
2019-04-29T12:17:21.328Z,87.20
2019-04-29T12:19:58.932Z,87.10
2019-04-29T12:22:47.707Z,87.23
2019-04-29T12:25:13.503Z,87.29
2019-04-29T12:27:52.820Z,87.55
2019-04-29T12:30:29.887Z,87.65
2019-04-29T12:33:10.895Z,88.26
2019-04-29T12:35:52.328Z,87.61
2019-04-29T12:38:48.846Z,87.83
2019-04-29T12:41:29.646Z,86.93
2019-04-29T12:44:02.692Z,86.42
2019-04-29T12:46:43.171Z,87.18
2019-04-29T12:49:19.196Z,86.71
2019-04-29T12:51:55.153Z,85.87
2019-04-29T12:54:31.096Z,85.82
2019-04-29T12:57:07.050Z,86.46
2019-04-29T12:59:43.007Z,87.25
2019-04-29T13:02:24.448Z,86.86
2019-04-29T13:05:01.608Z,86.86
2019-04-29T13:07:45.788Z,85.64
2019-04-29T13:10:33.562Z,85.99
2019-04-29T13:13:09.530Z,85.22
2019-04-29T13:16:04.117Z,85.69
2019-04-29T13:18:44.370Z,86.14
2019-04-29T13:21:20.428Z,86.27
2019-04-29T13:24:12.521Z,86.26
2019-04-29T13:26:37.312Z,86.73
2019-04-29T13:29:26.268Z,86.36
2019-04-29T13:31:50.805Z,86.31
2019-04-29T13:34:31.181Z,86.90
2019-04-29T13:37:08.037Z,87.29
2019-04-29T13:39:43.897Z,87.11
2019-04-29T13:42:19.864Z,87.47
2019-04-29T13:45:09.615Z,86.64
2019-04-29T13:47:35.047Z,86.63
2019-04-29T13:50:39.006Z,87.04
2019-04-29T13:53:04.989Z,87.01
2019-04-29T13:55:49.839Z,87.53
2019-04-29T13:58:22.174Z,87.39
2019-04-29T14:00:59.929Z,87.18
2019-04-29T14:03:37.404Z,86.23
2019-04-29T14:06:18.680Z,86.82
2019-04-29T14:08:54.160Z,86.62
2019-04-29T14:11:30.141Z,86.34
2019-04-29T14:14:06.258Z,86.79
2019-04-29T14:16:45.740Z,86.51
2019-04-29T14:19:33.585Z,87.25
2019-04-29T14:21:57.605Z,86.75
2019-04-29T14:24:33.568Z,86.52
2019-04-29T14:27:23.674Z,86.87
2019-04-29T14:29:47.623Z,87.09
2019-04-29T14:32:34.538Z,87.18
2019-04-29T14:35:07.020Z,87.09
2019-04-29T14:37:54.439Z,87.22
2019-04-29T14:40:21.171Z,87.12
2019-04-29T14:43:07.125Z,87.15
2019-04-29T14:45:47.733Z,86.92
2019-04-29T14:48:25.221Z,87.21
2019-04-29T14:51:01.602Z,87.45
2019-04-29T14:53:37.521Z,87.33
2019-04-29T14:56:15.828Z,87.53
2019-04-29T14:58:51.311Z,87.86
2019-04-29T15:01:32.061Z,87.43
2019-04-29T15:04:18.023Z,87.41
2019-04-29T15:06:47.393Z,87.61
2019-04-29T15:09:24.016Z,87.42
2019-04-29T15:12:21.727Z,87.70
2019-04-29T15:15:09.234Z,87.29
2019-04-29T15:17:52.872Z,87.17
2019-04-29T15:20:33.886Z,87.60
2019-04-29T15:23:10.221Z,87.67
2019-04-29T15:25:46.271Z,87.34
2019-04-29T15:28:22.232Z,87.27
2019-04-29T15:30:58.105Z,87.23
2019-04-29T15:33:34.684Z,87.35
2019-04-29T15:36:11.738Z,87.49
2019-04-29T15:39:07.721Z,87.69
2019-04-29T15:41:30.917Z,87.73
2019-04-29T15:44:07.485Z,88.01
2019-04-29T15:46:47.955Z,87.86
2019-04-29T15:49:20.171Z,87.48
2019-04-29T15:51:56.375Z,87.58
2019-04-29T15:54:32.952Z,87.88
2019-04-29T15:57:14.871Z,88.48
2019-04-29T15:59:49.209Z,88.40
2019-04-29T16:02:24.182Z,87.96
2019-04-29T16:08:09.237Z,88.46
2019-04-29T16:11:02.900Z,88.69
2019-04-29T16:13:39.423Z,88.76
2019-04-29T16:16:15.498Z,89.21
2019-04-29T16:18:51.450Z,89.26
2019-04-29T16:21:32.359Z,89.05
2019-04-29T16:24:25.044Z,88.63
2019-04-29T16:26:43.916Z,88.63
2019-04-29T16:29:19.907Z,88.62
2019-04-29T16:32:02.337Z,88.97
2019-04-29T16:34:37.552Z,88.84
2019-04-29T16:37:19.221Z,88.39
2019-04-29T16:39:52.770Z,88.41
2019-04-29T16:42:34.706Z,88.49
2019-04-29T16:45:11.947Z,88.45
2019-04-29T16:47:48.803Z,88.32
2019-04-29T16:50:24.828Z,87.96
2019-04-29T16:53:00.783Z,88.47
2019-04-29T16:55:43.238Z,88.29
2019-04-29T16:58:18.097Z,88.60
2019-04-29T17:00:54.576Z,88.65
2019-04-29T17:03:29.846Z,88.83
2019-04-29T17:06:05.894Z,88.45
2019-04-29T17:09:03.254Z,88.39
2019-04-29T17:11:39.982Z,88.17
2019-04-29T17:14:16.068Z,87.88
2019-04-29T17:16:52.059Z,87.84
2019-04-29T17:19:28.109Z,87.57
2019-04-29T17:22:24.901Z,87.33
2019-04-29T17:24:43.529Z,87.25
2019-04-29T17:27:26.618Z,87.14
2019-04-29T17:30:08.595Z,87.40
2019-04-29T17:33:00.363Z,87.71
2019-04-29T17:35:47.096Z,87.79
2019-04-29T17:38:29.611Z,88.01
2019-04-29T17:41:16.360Z,88.23
2019-04-29T17:44:02.060Z,88.52
2019-04-29T17:46:51.630Z,88.50
2019-04-29T17:49:31.917Z,88.53
2019-04-29T17:52:09.693Z,88.36
2019-04-29T17:55:02.690Z,88.24
2019-04-29T17:57:41.524Z,88.40
2019-04-29T18:00:20.398Z,88.41
2019-04-29T18:03:00.871Z,88.72
2019-04-29T18:05:54.500Z,88.89
2019-04-29T18:08:28.957Z,89.02
2019-04-29T18:11:08.111Z,88.83
2019-04-29T18:13:45.863Z,88.91
2019-04-29T18:16:28.002Z,89.02
2019-04-29T18:19:06.729Z,89.19
2019-04-29T18:21:59.448Z,89.17
2019-04-29T18:24:37.494Z,89.05
2019-04-29T18:27:15.384Z,89.12
2019-04-29T18:29:51.425Z,89.10
2019-04-29T18:32:35.034Z,88.93
2019-04-29T18:35:05.694Z,89.00
2019-04-29T18:37:41.868Z,89.10
2019-04-29T18:40:17.916Z,89.06
2019-04-29T18:42:55.393Z,89.06
2019-04-29T18:45:34.553Z,88.99
2019-04-29T18:48:16.608Z,88.87
2019-04-29T18:50:47.270Z,88.96
2019-04-29T18:53:23.212Z,88.94
2019-04-29T18:55:59.170Z,89.09
2019-04-29T18:58:35.623Z,89.16
2019-04-29T19:01:11.593Z,89.44
2019-04-29T19:03:49.188Z,89.53
2019-04-29T19:06:25.148Z,89.35
2019-04-29T19:09:02.685Z,89.48
2019-04-29T19:11:42.908Z,89.66
2019-04-29T19:14:26.848Z,89.47
2019-04-29T19:17:01.300Z,89.67
2019-04-29T19:19:39.315Z,89.83
2019-04-29T19:22:15.690Z,90.09
2019-04-29T19:24:51.688Z,90.46
2019-04-29T19:27:30.506Z,90.65
2019-04-29T19:30:08.776Z,90.50
2019-04-29T19:32:46.746Z,90.23
2019-04-29T19:35:22.456Z,90.32
2019-04-29T19:37:58.636Z,90.29
2019-04-29T19:40:41.358Z,90.09
2019-04-29T19:43:15.316Z,89.98
2019-04-29T19:45:50.510Z,89.77
2019-04-29T19:48:27.305Z,89.85
2019-04-29T19:51:14.668Z,89.79
2019-04-29T19:53:43.428Z,89.81
2019-04-29T19:56:23.202Z,89.68
2019-04-29T19:59:03.131Z,89.78
2019-04-29T20:01:38.068Z,89.91
2019-04-29T20:04:29.015Z,90.12
2019-04-29T20:07:09.388Z,90.32
2019-04-29T20:09:43.780Z,90.34
2019-04-29T20:12:20.730Z,90.25
2019-04-29T20:14:59.707Z,90.50
2019-04-29T20:17:49.661Z,90.61
2019-04-29T20:20:29.722Z,90.62
2019-04-29T20:23:05.974Z,90.84
2019-04-29T20:25:42.795Z,91.02
2019-04-29T20:28:21.341Z,91.00
2019-04-29T20:31:15.085Z,90.94
2019-04-29T20:33:34.649Z,90.89
2019-04-29T20:36:12.640Z,90.91
2019-04-29T20:38:48.842Z,90.88
2019-04-29T20:41:40.147Z,91.00
2019-04-29T20:44:05.872Z,91.24
2019-04-29T20:46:45.595Z,91.43
2019-04-29T20:49:17.990Z,91.15
2019-04-29T20:51:55.977Z,91.41
2019-04-29T20:54:36.369Z,91.19
2019-04-29T20:57:18.842Z,91.22
2019-04-29T20:59:50.679Z,91.12
2019-04-29T21:02:31.411Z,91.08
2019-04-29T21:05:06.558Z,91.19
2019-04-29T21:07:42.882Z,91.00
2019-04-29T21:10:19.672Z,91.09
2019-04-29T21:13:16.369Z,91.20
2019-04-29T21:15:59.668Z,91.51
2019-04-29T21:18:38.706Z,91.78
2019-04-29T21:21:15.102Z,91.90
2019-04-29T21:23:51.287Z,92.03
2019-04-29T21:26:27.242Z,92.12
2019-04-29T21:29:03.199Z,92.23
2019-04-29T21:31:39.155Z,92.25
2019-04-29T21:34:17.472Z,92.19
2019-04-29T21:37:01.572Z,92.10
2019-04-29T21:39:44.636Z,92.17
2019-04-29T21:42:29.725Z,91.92
2019-04-29T21:45:08.355Z,91.83
2019-04-29T21:47:45.007Z,91.54
2019-04-29T21:50:19.620Z,91.58
2019-04-29T21:53:01.717Z,91.45
2019-04-29T21:55:33.259Z,91.46
2019-04-29T21:58:09.154Z,91.08
2019-04-29T22:00:45.609Z,91.07
2019-04-29T22:03:24.590Z,91.14
2019-04-29T22:06:00.749Z,91.09
2019-04-29T22:08:37.770Z,91.11
2019-04-29T22:11:15.564Z,91.49
2019-04-29T22:13:51.513Z,91.53
2019-04-29T22:16:27.714Z,91.68
2019-04-29T22:19:04.142Z,91.69
2019-04-29T22:21:40.211Z,91.91
2019-04-29T22:24:16.169Z,91.98
2019-04-29T22:26:56.463Z,92.40
2019-04-29T22:29:32.164Z,92.20
2019-04-29T22:32:14.483Z,92.58
2019-04-29T22:34:49.481Z,92.65
2019-04-29T22:37:25.394Z,92.54
2019-04-29T22:40:03.162Z,92.32
2019-04-29T22:42:48.712Z,92.25
2019-04-29T22:45:24.698Z,92.55
2019-04-29T22:48:14.215Z,92.52
2019-04-29T22:50:47.421Z,92.45
2019-04-29T22:53:25.605Z,92.63
2019-04-29T22:56:08.977Z,92.31
2019-04-29T22:58:48.224Z,92.30
2019-04-29T23:01:26.912Z,92.34
2019-04-29T23:04:05.249Z,92.37
2019-04-29T23:06:46.605Z,92.62
2019-04-29T23:09:22.084Z,92.46
2019-04-29T23:11:59.291Z,92.49
2019-04-29T23:14:40.222Z,92.48
2019-04-29T23:17:18.814Z,92.31
2019-04-29T23:20:10.183Z,92.22
2019-04-29T23:33:30.237Z,92.07
2019-04-29T23:36:09.630Z,91.85
2019-04-29T23:38:44.198Z,91.94
2019-04-29T23:41:20.098Z,91.65
2019-04-29T23:43:59.944Z,91.35
2019-04-29T23:46:34.336Z,91.54
2019-04-29T23:49:10.443Z,91.64
2019-04-29T23:51:46.592Z,91.70
2019-04-29T23:54:22.571Z,91.93
2019-04-29T23:57:03.071Z,92.17
2019-04-29T23:59:53.529Z,92.47
